MMCU/CUU METAR and TAF weather

Enter ICAO airport designator
Station Type Date Time Source
MMCU METAR 2020/07/12 02:40 UTC NOAA

MMCU 120240Z 00000KT 10SM SCT035 SCT080 BKN200 32/10 A3012 RMK SLP065 52008 911 8/472 VC TCU


Station Type Date Time Source
MMCU Decoded METAR 2020/07/12 02:40 UTC NOAA

Chihuahua International Airport, Mexico (MMCU) 28-42N 105-58W
Jul 11, 2020 - 10:40 PM EDT / 2020.07.12 0240 UTC
Wind: Calm:0
Visibility: 10 mile(s):0
Sky conditions: mostly cloudy
Weather: Towering cumulus clouds observed
Temperature: 89 F (32 C)
Dew Point: 50 F (10 C)
Relative Humidity: 25%
Pressure (altimeter): 30.12 in. Hg (1019 hPa)
Pressure tendency: 0.02 inches (0.8 hPa) higher than three hours ago
ob: MMCU 120240Z 00000KT 10SM SCT035 SCT080 BKN200 32/10 A3012 RMK SLP065 52008 911 8/472 VC TCU
cycle: 2

Station Type Date Time Source
MMCU TAF 2020/07/12 06:09 UTC NOAA

TAF MMCU 120304Z 1206/1306 12005KT P6SM SCT035 SCT080
FM121600 14005KT P6SM SKC
FM122100 23015KT P6SM SCT030 SCT200
FM130300 12005KT P6SM SCT035 SCT080

Example: see airport list